sensor_id;sensor_type;location;lat;lon;timestamp;P1;durP1;ratioP1;P2;durP2;ratioP2
39792;SDS011;26080;42.264;24.536;2024-03-23T00:54:43;6.35;;;2.45;;
39792;SDS011;26080;42.264;24.536;2024-03-23T00:57:08;2.72;;;1.20;;
39792;SDS011;26080;42.264;24.536;2024-03-23T00:59:34;5.45;;;1.88;;
39792;SDS011;26080;42.264;24.536;2024-03-23T01:01:59;3.58;;;1.48;;
39792;SDS011;26080;42.264;24.536;2024-03-23T01:04:24;3.40;;;2.13;;
39792;SDS011;26080;42.264;24.536;2024-03-23T01:06:50;1.75;;;1.10;;
39792;SDS011;26080;42.264;24.536;2024-03-23T01:09:15;1.65;;;1.35;;
39792;SDS011;26080;42.264;24.536;2024-03-23T01:11:41;1.38;;;0.88;;
39792;SDS011;26080;42.264;24.536;2024-03-23T01:14:06;2.13;;;1.33;;
39792;SDS011;26080;42.264;24.536;2024-03-23T01:16:32;3.63;;;1.38;;
39792;SDS011;26080;42.264;24.536;2024-03-23T01:18:57;4.65;;;2.53;;
39792;SDS011;26080;42.264;24.536;2024-03-23T01:21:23;7.57;;;1.58;;
39792;SDS011;26080;42.264;24.536;2024-03-23T01:23:48;2.55;;;1.13;;
39792;SDS011;26080;42.264;24.536;2024-03-23T01:26:14;3.53;;;1.75;;
39792;SDS011;26080;42.264;24.536;2024-03-23T01:28:40;4.38;;;1.60;;
39792;SDS011;26080;42.264;24.536;2024-03-23T01:31:05;4.00;;;1.10;;
39792;SDS011;26080;42.264;24.536;2024-03-23T01:33:30;1.95;;;1.50;;
39792;SDS011;26080;42.264;24.536;2024-03-23T01:35:56;5.25;;;1.60;;
39792;SDS011;26080;42.264;24.536;2024-03-23T01:38:21;3.95;;;1.65;;
39792;SDS011;26080;42.264;24.536;2024-03-23T01:40:47;1.70;;;1.58;;
39792;SDS011;26080;42.264;24.536;2024-03-23T01:43:13;2.47;;;1.33;;
39792;SDS011;26080;42.264;24.536;2024-03-23T01:45:38;2.88;;;1.45;;
39792;SDS011;26080;42.264;24.536;2024-03-23T01:48:04;1.35;;;0.95;;
39792;SDS011;26080;42.264;24.536;2024-03-23T01:50:30;3.35;;;1.33;;
39792;SDS011;26080;42.264;24.536;2024-03-23T01:52:58;3.55;;;1.20;;
39792;SDS011;26080;42.264;24.536;2024-03-23T01:55:26;2.58;;;0.77;;
39792;SDS011;26080;42.264;24.536;2024-03-23T01:57:52;3.25;;;1.60;;
39792;SDS011;26080;42.264;24.536;2024-03-23T02:00:18;1.17;;;0.80;;
39792;SDS011;26080;42.264;24.536;2024-03-23T02:02:43;4.07;;;1.23;;
39792;SDS011;26080;42.264;24.536;2024-03-23T02:05:10;1.58;;;1.20;;
39792;SDS011;26080;42.264;24.536;2024-03-23T02:07:39;1.92;;;1.10;;
39792;SDS011;26080;42.264;24.536;2024-03-23T02:10:06;1.63;;;0.77;;
39792;SDS011;26080;42.264;24.536;2024-03-23T02:12:32;3.10;;;1.20;;
39792;SDS011;26080;42.264;24.536;2024-03-23T02:14:57;1.23;;;0.80;;
39792;SDS011;26080;42.264;24.536;2024-03-23T02:17:23;2.03;;;1.17;;
39792;SDS011;26080;42.264;24.536;2024-03-23T02:19:48;1.73;;;1.02;;
39792;SDS011;26080;42.264;24.536;2024-03-23T02:22:13;0.70;;;0.30;;
39792;SDS011;26080;42.264;24.536;2024-03-23T02:24:41;1.35;;;1.25;;
39792;SDS011;26080;42.264;24.536;2024-03-23T02:27:06;2.38;;;0.85;;
39792;SDS011;26080;42.264;24.536;2024-03-23T02:29:31;1.67;;;0.73;;
39792;SDS011;26080;42.264;24.536;2024-03-23T02:31:57;1.20;;;1.10;;
39792;SDS011;26080;42.264;24.536;2024-03-23T02:34:23;1.17;;;0.50;;
39792;SDS011;26080;42.264;24.536;2024-03-23T02:36:49;1.08;;;0.75;;
39792;SDS011;26080;42.264;24.536;2024-03-23T02:39:14;4.45;;;1.67;;
39792;SDS011;26080;42.264;24.536;2024-03-23T02:41:40;1.77;;;1.52;;
39792;SDS011;26080;42.264;24.536;2024-03-23T02:44:05;4.70;;;1.10;;
39792;SDS011;26080;42.264;24.536;2024-03-23T02:46:31;2.80;;;1.13;;
39792;SDS011;26080;42.264;24.536;2024-03-23T02:48:57;1.27;;;1.02;;
39792;SDS011;26080;42.264;24.536;2024-03-23T02:51:22;4.47;;;1.58;;
39792;SDS011;26080;42.264;24.536;2024-03-23T02:53:48;2.20;;;1.08;;
39792;SDS011;26080;42.264;24.536;2024-03-23T02:56:13;3.35;;;1.50;;
39792;SDS011;26080;42.264;24.536;2024-03-23T02:58:41;1.75;;;0.73;;
39792;SDS011;26080;42.264;24.536;2024-03-23T03:01:07;3.15;;;1.40;;
39792;SDS011;26080;42.264;24.536;2024-03-23T03:03:32;3.08;;;1.58;;
39792;SDS011;26080;42.264;24.536;2024-03-23T03:05:58;2.60;;;1.15;;
39792;SDS011;26080;42.264;24.536;2024-03-23T03:08:23;3.10;;;1.05;;
39792;SDS011;26080;42.264;24.536;2024-03-23T03:10:49;1.10;;;0.75;;
39792;SDS011;26080;42.264;24.536;2024-03-23T03:13:14;2.30;;;0.98;;
39792;SDS011;26080;42.264;24.536;2024-03-23T03:15:43;3.05;;;1.38;;
39792;SDS011;26080;42.264;24.536;2024-03-23T03:18:09;1.77;;;1.27;;
39792;SDS011;26080;42.264;24.536;2024-03-23T03:20:38;5.53;;;2.47;;
39792;SDS011;26080;42.264;24.536;2024-03-23T03:23:04;3.00;;;1.05;;
39792;SDS011;26080;42.264;24.536;2024-03-23T03:25:30;2.67;;;1.52;;
39792;SDS011;26080;42.264;24.536;2024-03-23T03:27:56;2.80;;;1.35;;
39792;SDS011;26080;42.264;24.536;2024-03-23T03:30:21;8.57;;;4.22;;
39792;SDS011;26080;42.264;24.536;2024-03-23T03:32:46;9.00;;;2.95;;
39792;SDS011;26080;42.264;24.536;2024-03-23T03:35:12;4.55;;;1.00;;
39792;SDS011;26080;42.264;24.536;2024-03-23T03:37:37;1.58;;;1.13;;
39792;SDS011;26080;42.264;24.536;2024-03-23T03:40:03;2.72;;;1.35;;
39792;SDS011;26080;42.264;24.536;2024-03-23T03:42:29;2.20;;;0.88;;
39792;SDS011;26080;42.264;24.536;2024-03-23T03:44:54;1.88;;;0.80;;
39792;SDS011;26080;42.264;24.536;2024-03-23T03:47:19;7.95;;;2.83;;
39792;SDS011;26080;42.264;24.536;2024-03-23T03:49:45;9.30;;;3.60;;
39792;SDS011;26080;42.264;24.536;2024-03-23T03:52:10;13.88;;;6.32;;
39792;SDS011;26080;42.264;24.536;2024-03-23T03:54:36;4.50;;;1.98;;
39792;SDS011;26080;42.264;24.536;2024-03-23T03:57:01;6.68;;;2.80;;
39792;SDS011;26080;42.264;24.536;2024-03-23T03:59:27;1.67;;;1.17;;
39792;SDS011;26080;42.264;24.536;2024-03-23T04:01:52;2.83;;;1.98;;
39792;SDS011;26080;42.264;24.536;2024-03-23T04:04:17;4.53;;;1.73;;
39792;SDS011;26080;42.264;24.536;2024-03-23T04:06:43;4.07;;;1.38;;
39792;SDS011;26080;42.264;24.536;2024-03-23T04:09:09;5.78;;;2.65;;
39792;SDS011;26080;42.264;24.536;2024-03-23T04:11:35;2.22;;;2.03;;
39792;SDS011;26080;42.264;24.536;2024-03-23T04:14:00;3.45;;;2.10;;
39792;SDS011;26080;42.264;24.536;2024-03-23T04:16:34;3.78;;;1.52;;
39792;SDS011;26080;42.264;24.536;2024-03-23T04:19:00;3.80;;;2.00;;
39792;SDS011;26080;42.264;24.536;2024-03-23T04:21:26;2.53;;;1.42;;
39792;SDS011;26080;42.264;24.536;2024-03-23T04:23:51;1.75;;;1.08;;
39792;SDS011;26080;42.264;24.536;2024-03-23T04:26:17;1.70;;;1.33;;
39792;SDS011;26080;42.264;24.536;2024-03-23T04:28:42;5.47;;;1.33;;
39792;SDS011;26080;42.264;24.536;2024-03-23T04:31:08;19.38;;;3.45;;
39792;SDS011;26080;42.264;24.536;2024-03-23T04:33:36;10.77;;;2.08;;
39792;SDS011;26080;42.264;24.536;2024-03-23T04:36:02;3.05;;;1.70;;
39792;SDS011;26080;42.264;24.536;2024-03-23T04:38:28;1.52;;;0.95;;
39792;SDS011;26080;42.264;24.536;2024-03-23T04:40:54;2.95;;;1.67;;
39792;SDS011;26080;42.264;24.536;2024-03-23T04:43:23;28.77;;;2.08;;
39792;SDS011;26080;42.264;24.536;2024-03-23T04:45:49;1.88;;;1.55;;
39792;SDS011;26080;42.264;24.536;2024-03-23T04:48:14;5.88;;;2.08;;
39792;SDS011;26080;42.264;24.536;2024-03-23T04:50:40;4.18;;;2.03;;
39792;SDS011;26080;42.264;24.536;2024-03-23T04:53:06;10.32;;;2.15;;
39792;SDS011;26080;42.264;24.536;2024-03-23T04:55:32;7.05;;;3.42;;
39792;SDS011;26080;42.264;24.536;2024-03-23T04:57:57;6.38;;;2.75;;
39792;SDS011;26080;42.264;24.536;2024-03-23T05:00:22;7.13;;;2.88;;
39792;SDS011;26080;42.264;24.536;2024-03-23T05:02:48;3.20;;;2.00;;
39792;SDS011;26080;42.264;24.536;2024-03-23T05:05:13;2.65;;;1.30;;
39792;SDS011;26080;42.264;24.536;2024-03-23T05:07:39;4.95;;;2.13;;
39792;SDS011;26080;42.264;24.536;2024-03-23T05:10:06;3.88;;;1.83;;
39792;SDS011;26080;42.264;24.536;2024-03-23T05:12:35;14.00;;;6.85;;
39792;SDS011;26080;42.264;24.536;2024-03-23T05:15:01;11.20;;;7.28;;
39792;SDS011;26080;42.264;24.536;2024-03-23T05:17:26;15.80;;;8.00;;
39792;SDS011;26080;42.264;24.536;2024-03-23T05:19:51;10.25;;;4.97;;
39792;SDS011;26080;42.264;24.536;2024-03-23T05:22:17;5.20;;;2.65;;
39792;SDS011;26080;42.264;24.536;2024-03-23T05:24:44;5.32;;;2.28;;
39792;SDS011;26080;42.264;24.536;2024-03-23T05:27:10;4.60;;;1.45;;
39792;SDS011;26080;42.264;24.536;2024-03-23T05:29:35;7.65;;;2.92;;
39792;SDS011;26080;42.264;24.536;2024-03-23T05:32:01;0.80;;;0.60;;
39792;SDS011;26080;42.264;24.536;2024-03-23T05:34:26;3.22;;;2.08;;
39792;SDS011;26080;42.264;24.536;2024-03-23T05:36:53;5.13;;;1.77;;
39792;SDS011;26080;42.264;24.536;2024-03-23T05:39:18;3.05;;;1.65;;
39792;SDS011;26080;42.264;24.536;2024-03-23T05:41:46;12.55;;;4.25;;
39792;SDS011;26080;42.264;24.536;2024-03-23T05:44:12;6.43;;;4.15;;
39792;SDS011;26080;42.264;24.536;2024-03-23T05:46:37;10.20;;;5.18;;
39792;SDS011;26080;42.264;24.536;2024-03-23T05:49:03;4.57;;;2.60;;
39792;SDS011;26080;42.264;24.536;2024-03-23T05:51:28;3.75;;;1.90;;
39792;SDS011;26080;42.264;24.536;2024-03-23T05:53:54;4.65;;;2.05;;
39792;SDS011;26080;42.264;24.536;2024-03-23T05:56:19;2.45;;;1.20;;
39792;SDS011;26080;42.264;24.536;2024-03-23T05:58:45;6.43;;;3.13;;
39792;SDS011;26080;42.264;24.536;2024-03-23T06:01:11;3.35;;;2.28;;
39792;SDS011;26080;42.264;24.536;2024-03-23T06:03:37;5.28;;;2.30;;
39792;SDS011;26080;42.264;24.536;2024-03-23T06:06:03;3.85;;;3.08;;
39792;SDS011;26080;42.264;24.536;2024-03-23T06:08:29;8.52;;;2.88;;
39792;SDS011;26080;42.264;24.536;2024-03-23T06:10:55;8.18;;;3.35;;
39792;SDS011;26080;42.264;24.536;2024-03-23T06:13:20;9.27;;;3.08;;
39792;SDS011;26080;42.264;24.536;2024-03-23T06:15:49;7.97;;;3.60;;
39792;SDS011;26080;42.264;24.536;2024-03-23T06:18:15;6.03;;;3.45;;
39792;SDS011;26080;42.264;24.536;2024-03-23T06:20:40;5.78;;;3.47;;
39792;SDS011;26080;42.264;24.536;2024-03-23T06:23:06;8.88;;;3.08;;
39792;SDS011;26080;42.264;24.536;2024-03-23T06:25:32;5.90;;;3.83;;
39792;SDS011;26080;42.264;24.536;2024-03-23T06:27:57;6.63;;;4.13;;
39792;SDS011;26080;42.264;24.536;2024-03-23T06:30:27;6.35;;;3.13;;
39792;SDS011;26080;42.264;24.536;2024-03-23T06:32:54;9.02;;;2.50;;
39792;SDS011;26080;42.264;24.536;2024-03-23T06:35:20;8.52;;;2.80;;
39792;SDS011;26080;42.264;24.536;2024-03-23T06:37:45;4.55;;;3.65;;
39792;SDS011;26080;42.264;24.536;2024-03-23T06:40:11;10.57;;;3.95;;
39792;SDS011;26080;42.264;24.536;2024-03-23T06:42:36;5.38;;;1.80;;
39792;SDS011;26080;42.264;24.536;2024-03-23T06:45:02;5.53;;;2.75;;
39792;SDS011;26080;42.264;24.536;2024-03-23T06:47:31;20.60;;;5.57;;
39792;SDS011;26080;42.264;24.536;2024-03-23T06:49:57;6.05;;;3.17;;
39792;SDS011;26080;42.264;24.536;2024-03-23T06:52:26;3.92;;;2.15;;
39792;SDS011;26080;42.264;24.536;2024-03-23T06:54:52;5.80;;;2.88;;
39792;SDS011;26080;42.264;24.536;2024-03-23T06:57:18;6.43;;;2.78;;
39792;SDS011;26080;42.264;24.536;2024-03-23T06:59:43;3.47;;;2.08;;
39792;SDS011;26080;42.264;24.536;2024-03-23T07:02:08;3.33;;;2.30;;
39792;SDS011;26080;42.264;24.536;2024-03-23T07:04:34;6.75;;;3.25;;
39792;SDS011;26080;42.264;24.536;2024-03-23T07:07:00;5.78;;;3.30;;
39792;SDS011;26080;42.264;24.536;2024-03-23T07:09:27;7.85;;;2.72;;
39792;SDS011;26080;42.264;24.536;2024-03-23T07:11:53;6.15;;;2.42;;
39792;SDS011;26080;42.264;24.536;2024-03-23T07:14:19;7.10;;;3.05;;
39792;SDS011;26080;42.264;24.536;2024-03-23T07:16:45;11.20;;;4.85;;
39792;SDS011;26080;42.264;24.536;2024-03-23T07:19:11;8.98;;;3.60;;
39792;SDS011;26080;42.264;24.536;2024-03-23T07:21:36;5.13;;;3.42;;
39792;SDS011;26080;42.264;24.536;2024-03-23T07:24:01;3.97;;;2.65;;
39792;SDS011;26080;42.264;24.536;2024-03-23T07:26:27;8.82;;;2.58;;
39792;SDS011;26080;42.264;24.536;2024-03-23T07:28:53;5.85;;;2.90;;
39792;SDS011;26080;42.264;24.536;2024-03-23T07:31:18;9.82;;;2.17;;
39792;SDS011;26080;42.264;24.536;2024-03-23T07:33:45;6.30;;;3.50;;
39792;SDS011;26080;42.264;24.536;2024-03-23T07:36:12;5.47;;;3.15;;
39792;SDS011;26080;42.264;24.536;2024-03-23T07:38:41;6.88;;;3.90;;
39792;SDS011;26080;42.264;24.536;2024-03-23T07:41:10;8.45;;;2.58;;
39792;SDS011;26080;42.264;24.536;2024-03-23T07:43:37;6.57;;;3.58;;
39792;SDS011;26080;42.264;24.536;2024-03-23T07:46:04;8.90;;;2.03;;
39792;SDS011;26080;42.264;24.536;2024-03-23T07:48:30;5.93;;;2.50;;
39792;SDS011;26080;42.264;24.536;2024-03-23T07:50:59;2.90;;;1.67;;
39792;SDS011;26080;42.264;24.536;2024-03-23T07:55:58;2.80;;;2.10;;
39792;SDS011;26080;42.264;24.536;2024-03-23T07:58:28;3.78;;;1.70;;
39792;SDS011;26080;42.264;24.536;2024-03-23T08:01:02;4.72;;;1.42;;
39792;SDS011;26080;42.264;24.536;2024-03-23T08:03:29;5.05;;;2.10;;
39792;SDS011;26080;42.264;24.536;2024-03-23T08:05:55;5.75;;;1.95;;
39792;SDS011;26080;42.264;24.536;2024-03-23T08:08:20;3.30;;;1.92;;
39792;SDS011;26080;42.264;24.536;2024-03-23T08:13:14;2.50;;;1.77;;
39792;SDS011;26080;42.264;24.536;2024-03-23T08:15:40;4.65;;;1.95;;
39792;SDS011;26080;42.264;24.536;2024-03-23T08:18:05;3.65;;;1.95;;
39792;SDS011;26080;42.264;24.536;2024-03-23T08:20:31;3.42;;;1.40;;
39792;SDS011;26080;42.264;24.536;2024-03-23T08:22:56;3.13;;;1.50;;
39792;SDS011;26080;42.264;24.536;2024-03-23T08:25:22;3.42;;;2.15;;
39792;SDS011;26080;42.264;24.536;2024-03-23T08:27:47;3.83;;;2.20;;
39792;SDS011;26080;42.264;24.536;2024-03-23T08:30:13;2.88;;;1.70;;
39792;SDS011;26080;42.264;24.536;2024-03-23T08:32:39;4.85;;;1.92;;
39792;SDS011;26080;42.264;24.536;2024-03-23T08:35:04;6.38;;;2.10;;
39792;SDS011;26080;42.264;24.536;2024-03-23T08:37:30;4.65;;;1.92;;
39792;SDS011;26080;42.264;24.536;2024-03-23T08:39:55;2.88;;;1.20;;
39792;SDS011;26080;42.264;24.536;2024-03-23T08:42:21;3.13;;;1.90;;
39792;SDS011;26080;42.264;24.536;2024-03-23T08:44:46;3.63;;;1.33;;
39792;SDS011;26080;42.264;24.536;2024-03-23T08:47:14;4.10;;;2.05;;
39792;SDS011;26080;42.264;24.536;2024-03-23T08:49:44;4.97;;;1.73;;
39792;SDS011;26080;42.264;24.536;2024-03-23T08:52:10;2.83;;;1.63;;
39792;SDS011;26080;42.264;24.536;2024-03-23T08:54:35;3.17;;;1.85;;
39792;SDS011;26080;42.264;24.536;2024-03-23T08:57:00;3.10;;;1.92;;
39792;SDS011;26080;42.264;24.536;2024-03-23T08:59:26;3.47;;;1.15;;
39792;SDS011;26080;42.264;24.536;2024-03-23T09:01:52;1.90;;;1.30;;
39792;SDS011;26080;42.264;24.536;2024-03-23T09:04:17;2.20;;;1.25;;
39792;SDS011;26080;42.264;24.536;2024-03-23T09:06:43;3.25;;;1.50;;
39792;SDS011;26080;42.264;24.536;2024-03-23T09:09:09;3.63;;;1.50;;
39792;SDS011;26080;42.264;24.536;2024-03-23T09:11:34;2.17;;;1.45;;
39792;SDS011;26080;42.264;24.536;2024-03-23T09:14:00;3.28;;;1.88;;
39792;SDS011;26080;42.264;24.536;2024-03-23T09:16:25;5.18;;;1.83;;
39792;SDS011;26080;42.264;24.536;2024-03-23T09:18:51;1.73;;;1.00;;
39792;SDS011;26080;42.264;24.536;2024-03-23T09:21:17;3.65;;;1.48;;
39792;SDS011;26080;42.264;24.536;2024-03-23T09:23:43;2.03;;;1.08;;
39792;SDS011;26080;42.264;24.536;2024-03-23T09:26:09;5.93;;;1.48;;
39792;SDS011;26080;42.264;24.536;2024-03-23T09:28:35;4.40;;;2.25;;
39792;SDS011;26080;42.264;24.536;2024-03-23T09:31:07;4.25;;;2.13;;
39792;SDS011;26080;42.264;24.536;2024-03-23T09:33:35;2.00;;;1.65;;
39792;SDS011;26080;42.264;24.536;2024-03-23T09:36:04;2.38;;;1.15;;
39792;SDS011;26080;42.264;24.536;2024-03-23T09:38:30;4.53;;;2.35;;
39792;SDS011;26080;42.264;24.536;2024-03-23T09:40:56;2.90;;;1.65;;
39792;SDS011;26080;42.264;24.536;2024-03-23T09:43:21;4.75;;;2.03;;
39792;SDS011;26080;42.264;24.536;2024-03-23T09:45:47;7.45;;;1.63;;
39792;SDS011;26080;42.264;24.536;2024-03-23T09:48:14;5.05;;;1.90;;
39792;SDS011;26080;42.264;24.536;2024-03-23T09:50:40;7.80;;;2.13;;
39792;SDS011;26080;42.264;24.536;2024-03-23T09:53:07;5.55;;;1.80;;
39792;SDS011;26080;42.264;24.536;2024-03-23T09:55:33;5.68;;;2.30;;
39792;SDS011;26080;42.264;24.536;2024-03-23T09:58:00;3.55;;;1.52;;
39792;SDS011;26080;42.264;24.536;2024-03-23T10:03:01;4.30;;;2.13;;
39792;SDS011;26080;42.264;24.536;2024-03-23T10:05:27;2.80;;;0.98;;
39792;SDS011;26080;42.264;24.536;2024-03-23T10:10:58;2.10;;;1.25;;
39792;SDS011;26080;42.264;24.536;2024-03-23T10:13:38;2.72;;;1.60;;
39792;SDS011;26080;42.264;24.536;2024-03-23T10:16:09;1.58;;;0.90;;
39792;SDS011;26080;42.264;24.536;2024-03-23T10:18:41;2.95;;;1.50;;
39792;SDS011;26080;42.264;24.536;2024-03-23T10:23:39;2.53;;;1.02;;
39792;SDS011;26080;42.264;24.536;2024-03-23T10:26:13;2.30;;;0.88;;
39792;SDS011;26080;42.264;24.536;2024-03-23T10:31:17;2.22;;;1.35;;
39792;SDS011;26080;42.264;24.536;2024-03-23T10:33:46;2.95;;;1.75;;
39792;SDS011;26080;42.264;24.536;2024-03-23T10:36:12;2.97;;;1.00;;
39792;SDS011;26080;42.264;24.536;2024-03-23T10:38:40;2.70;;;1.38;;
39792;SDS011;26080;42.264;24.536;2024-03-23T10:41:06;4.07;;;1.38;;
39792;SDS011;26080;42.264;24.536;2024-03-23T10:43:34;2.20;;;0.82;;
39792;SDS011;26080;42.264;24.536;2024-03-23T10:46:01;3.85;;;1.92;;
39792;SDS011;26080;42.264;24.536;2024-03-23T10:48:26;1.92;;;0.98;;
39792;SDS011;26080;42.264;24.536;2024-03-23T10:50:52;3.55;;;1.52;;
39792;SDS011;26080;42.264;24.536;2024-03-23T10:53:18;2.85;;;1.08;;
39792;SDS011;26080;42.264;24.536;2024-03-23T10:55:47;2.95;;;1.05;;
39792;SDS011;26080;42.264;24.536;2024-03-23T10:58:14;2.45;;;0.90;;
39792;SDS011;26080;42.264;24.536;2024-03-23T11:00:42;1.40;;;0.57;;
39792;SDS011;26080;42.264;24.536;2024-03-23T11:03:44;11.07;;;1.90;;
39792;SDS011;26080;42.264;24.536;2024-03-23T11:06:01;2.33;;;1.33;;
39792;SDS011;26080;42.264;24.536;2024-03-23T11:08:30;4.13;;;1.55;;
39792;SDS011;26080;42.264;24.536;2024-03-23T11:11:15;2.63;;;1.25;;
39792;SDS011;26080;42.264;24.536;2024-03-23T11:13:43;2.17;;;1.30;;
39792;SDS011;26080;42.264;24.536;2024-03-23T11:16:15;8.98;;;2.25;;
39792;SDS011;26080;42.264;24.536;2024-03-23T11:18:42;1.67;;;0.70;;
39792;SDS011;26080;42.264;24.536;2024-03-23T11:21:08;2.50;;;1.30;;
39792;SDS011;26080;42.264;24.536;2024-03-23T11:23:34;2.13;;;1.02;;
39792;SDS011;26080;42.264;24.536;2024-03-23T11:26:00;2.05;;;0.95;;
39792;SDS011;26080;42.264;24.536;2024-03-23T11:28:25;5.78;;;1.02;;
39792;SDS011;26080;42.264;24.536;2024-03-23T11:30:51;1.30;;;0.75;;
39792;SDS011;26080;42.264;24.536;2024-03-23T11:33:16;4.75;;;1.20;;
39792;SDS011;26080;42.264;24.536;2024-03-23T11:35:42;2.45;;;1.33;;
39792;SDS011;26080;42.264;24.536;2024-03-23T11:40:41;2.38;;;1.30;;
39792;SDS011;26080;42.264;24.536;2024-03-23T11:43:12;4.35;;;1.33;;
39792;SDS011;26080;42.264;24.536;2024-03-23T11:45:41;2.40;;;0.95;;
39792;SDS011;26080;42.264;24.536;2024-03-23T11:50:41;11.15;;;2.08;;
39792;SDS011;26080;42.264;24.536;2024-03-23T11:53:08;2.85;;;0.90;;
39792;SDS011;26080;42.264;24.536;2024-03-23T11:55:46;3.15;;;1.58;;
39792;SDS011;26080;42.264;24.536;2024-03-23T11:58:26;2.40;;;1.17;;
39792;SDS011;26080;42.264;24.536;2024-03-23T12:00:59;3.10;;;1.02;;
39792;SDS011;26080;42.264;24.536;2024-03-23T12:03:27;2.83;;;1.33;;
39792;SDS011;26080;42.264;24.536;2024-03-23T12:05:56;5.20;;;1.38;;
39792;SDS011;26080;42.264;24.536;2024-03-23T12:08:24;4.75;;;1.45;;
39792;SDS011;26080;42.264;24.536;2024-03-23T12:13:32;1.80;;;1.33;;
39792;SDS011;26080;42.264;24.536;2024-03-23T12:16:19;3.08;;;1.40;;
39792;SDS011;26080;42.264;24.536;2024-03-23T12:18:46;2.15;;;1.60;;
39792;SDS011;26080;42.264;24.536;2024-03-23T12:21:12;4.60;;;2.78;;
39792;SDS011;26080;42.264;24.536;2024-03-23T12:23:41;2.30;;;0.88;;
39792;SDS011;26080;42.264;24.536;2024-03-23T12:26:07;4.32;;;1.30;;
39792;SDS011;26080;42.264;24.536;2024-03-23T12:28:33;8.52;;;2.05;;
39792;SDS011;26080;42.264;24.536;2024-03-23T12:30:59;2.28;;;1.27;;
39792;SDS011;26080;42.264;24.536;2024-03-23T12:33:24;4.93;;;1.15;;
39792;SDS011;26080;42.264;24.536;2024-03-23T12:35:50;3.65;;;1.38;;
39792;SDS011;26080;42.264;24.536;2024-03-23T12:38:16;2.53;;;1.52;;
39792;SDS011;26080;42.264;24.536;2024-03-23T12:40:42;5.05;;;2.25;;
39792;SDS011;26080;42.264;24.536;2024-03-23T12:43:13;3.30;;;1.27;;
39792;SDS011;26080;42.264;24.536;2024-03-23T12:45:38;2.95;;;1.30;;
39792;SDS011;26080;42.264;24.536;2024-03-23T12:48:04;5.82;;;1.85;;
39792;SDS011;26080;42.264;24.536;2024-03-23T12:50:29;2.22;;;1.08;;
39792;SDS011;26080;42.264;24.536;2024-03-23T12:52:55;2.85;;;1.33;;
39792;SDS011;26080;42.264;24.536;2024-03-23T12:55:20;6.15;;;1.35;;
39792;SDS011;26080;42.264;24.536;2024-03-23T12:57:46;1.80;;;1.00;;
39792;SDS011;26080;42.264;24.536;2024-03-23T13:00:12;2.78;;;1.42;;
39792;SDS011;26080;42.264;24.536;2024-03-23T13:02:38;5.47;;;1.50;;
39792;SDS011;26080;42.264;24.536;2024-03-23T13:05:04;4.00;;;1.30;;
39792;SDS011;26080;42.264;24.536;2024-03-23T13:07:30;3.40;;;1.45;;
39792;SDS011;26080;42.264;24.536;2024-03-23T13:09:55;2.55;;;1.17;;
39792;SDS011;26080;42.264;24.536;2024-03-23T13:12:21;3.35;;;1.48;;
39792;SDS011;26080;42.264;24.536;2024-03-23T13:14:47;2.75;;;1.50;;
39792;SDS011;26080;42.264;24.536;2024-03-23T13:17:13;2.22;;;0.90;;
39792;SDS011;26080;42.264;24.536;2024-03-23T13:19:39;2.00;;;1.10;;
39792;SDS011;26080;42.264;24.536;2024-03-23T13:22:04;3.33;;;1.10;;
39792;SDS011;26080;42.264;24.536;2024-03-23T13:24:30;1.90;;;1.23;;
39792;SDS011;26080;42.264;24.536;2024-03-23T13:26:57;2.63;;;1.10;;
39792;SDS011;26080;42.264;24.536;2024-03-23T13:29:22;3.13;;;0.93;;
39792;SDS011;26080;42.264;24.536;2024-03-23T13:31:49;3.67;;;1.27;;
39792;SDS011;26080;42.264;24.536;2024-03-23T13:34:16;2.83;;;0.80;;
39792;SDS011;26080;42.264;24.536;2024-03-23T13:36:42;2.28;;;1.00;;
39792;SDS011;26080;42.264;24.536;2024-03-23T13:39:08;1.25;;;0.60;;
39792;SDS011;26080;42.264;24.536;2024-03-23T13:41:43;2.70;;;1.30;;
39792;SDS011;26080;42.264;24.536;2024-03-23T13:44:10;3.13;;;0.80;;
39792;SDS011;26080;42.264;24.536;2024-03-23T13:46:37;1.67;;;0.95;;
39792;SDS011;26080;42.264;24.536;2024-03-23T13:49:33;2.08;;;0.75;;
39792;SDS011;26080;42.264;24.536;2024-03-23T13:51:57;3.60;;;2.05;;
39792;SDS011;26080;42.264;24.536;2024-03-23T13:54:27;2.03;;;0.63;;
39792;SDS011;26080;42.264;24.536;2024-03-23T13:56:53;2.28;;;1.30;;
39792;SDS011;26080;42.264;24.536;2024-03-23T13:59:20;2.08;;;1.02;;
39792;SDS011;26080;42.264;24.536;2024-03-23T14:01:48;2.22;;;0.70;;
39792;SDS011;26080;42.264;24.536;2024-03-23T14:04:14;2.63;;;1.27;;
39792;SDS011;26080;42.264;24.536;2024-03-23T14:06:41;2.55;;;1.10;;
39792;SDS011;26080;42.264;24.536;2024-03-23T14:09:10;1.70;;;0.90;;
39792;SDS011;26080;42.264;24.536;2024-03-23T14:11:36;1.80;;;0.80;;
39792;SDS011;26080;42.264;24.536;2024-03-23T14:14:02;3.08;;;1.27;;
39792;SDS011;26080;42.264;24.536;2024-03-23T14:16:28;2.55;;;1.17;;
39792;SDS011;26080;42.264;24.536;2024-03-23T14:18:54;2.15;;;1.10;;
39792;SDS011;26080;42.264;24.536;2024-03-23T14:21:20;1.55;;;1.05;;
39792;SDS011;26080;42.264;24.536;2024-03-23T14:23:45;1.08;;;0.85;;
39792;SDS011;26080;42.264;24.536;2024-03-23T14:26:11;1.65;;;0.50;;
39792;SDS011;26080;42.264;24.536;2024-03-23T14:28:36;3.30;;;0.77;;
39792;SDS011;26080;42.264;24.536;2024-03-23T14:31:01;1.33;;;0.80;;
39792;SDS011;26080;42.264;24.536;2024-03-23T14:33:28;3.50;;;1.45;;
39792;SDS011;26080;42.264;24.536;2024-03-23T14:35:54;1.98;;;0.85;;
39792;SDS011;26080;42.264;24.536;2024-03-23T14:38:23;1.58;;;0.65;;
39792;SDS011;26080;42.264;24.536;2024-03-23T14:40:49;2.70;;;0.90;;
39792;SDS011;26080;42.264;24.536;2024-03-23T14:43:15;11.77;;;1.20;;
39792;SDS011;26080;42.264;24.536;2024-03-23T14:48:41;3.30;;;0.75;;
39792;SDS011;26080;42.264;24.536;2024-03-23T14:51:11;2.92;;;1.30;;
39792;SDS011;26080;42.264;24.536;2024-03-23T14:53:41;4.18;;;1.55;;
39792;SDS011;26080;42.264;24.536;2024-03-23T14:56:10;4.80;;;2.60;;
39792;SDS011;26080;42.264;24.536;2024-03-23T14:58:38;6.68;;;3.03;;
39792;SDS011;26080;42.264;24.536;2024-03-23T15:01:04;6.13;;;3.25;;
39792;SDS011;26080;42.264;24.536;2024-03-23T15:03:33;4.30;;;2.45;;
39792;SDS011;26080;42.264;24.536;2024-03-23T15:05:58;3.70;;;2.15;;
39792;SDS011;26080;42.264;24.536;2024-03-23T15:08:25;5.72;;;3.25;;
39792;SDS011;26080;42.264;24.536;2024-03-23T15:10:50;6.95;;;2.95;;
39792;SDS011;26080;42.264;24.536;2024-03-23T15:13:16;8.93;;;3.58;;
39792;SDS011;26080;42.264;24.536;2024-03-23T15:15:42;6.63;;;4.07;;
39792;SDS011;26080;42.264;24.536;2024-03-23T15:18:12;6.45;;;3.35;;
39792;SDS011;26080;42.264;24.536;2024-03-23T15:20:41;7.38;;;3.63;;
39792;SDS011;26080;42.264;24.536;2024-03-23T15:23:16;3.90;;;2.33;;
39792;SDS011;26080;42.264;24.536;2024-03-23T15:25:44;3.90;;;2.00;;
39792;SDS011;26080;42.264;24.536;2024-03-23T15:28:10;3.88;;;1.20;;
39792;SDS011;26080;42.264;24.536;2024-03-23T15:30:35;2.45;;;1.25;;
39792;SDS011;26080;42.264;24.536;2024-03-23T15:33:01;3.85;;;1.45;;
39792;SDS011;26080;42.264;24.536;2024-03-23T15:35:27;3.40;;;1.23;;
39792;SDS011;26080;42.264;24.536;2024-03-23T15:37:53;3.47;;;1.60;;
39792;SDS011;26080;42.264;24.536;2024-03-23T15:40:18;2.22;;;1.30;;
39792;SDS011;26080;42.264;24.536;2024-03-23T15:42:43;1.75;;;1.08;;
39792;SDS011;26080;42.264;24.536;2024-03-23T15:45:09;3.70;;;0.90;;
39792;SDS011;26080;42.264;24.536;2024-03-23T15:47:35;2.78;;;1.35;;
39792;SDS011;26080;42.264;24.536;2024-03-23T15:50:01;2.25;;;0.88;;